Batesville, Texas
Current Conditions -  °F | °C
As of 10:15 AM on Wednesday 26 Nov 2014 (Local Time) from KUVA Reporting Station
Clear Clear  
Wind Chill: 58°   Ceiling: Unl
Heat Index: 58°   Visibility: 10mi
Dew Point: 37°   Wind: 3mph
Humidity: 45%   Direction: 260°W
Pressure: 30.28"   Gusts: NA
Location:  28.95°N, 99.62°W
Report Text: KUVA 261615Z AUTO 26003KT 10SM CLR 14/03 A3028 RMK AO2 T01430026
Loading
Personal Weather Stations






























Interactive Weather Map New forecast layout! Learn more

10-Day Weather Forecast

Advertisements
Track Severe Weather on mobile